sensor_id;sensor_type;location;lat;lon;timestamp;P1;durP1;ratioP1;P2;durP2;ratioP2
33010;SDS011;19370;48.562;9.196;2023-12-20T00:01:27;6.32;;;2.20;;
33010;SDS011;19370;48.562;9.196;2023-12-20T00:03:52;5.90;;;2.03;;
33010;SDS011;19370;48.562;9.196;2023-12-20T00:09:45;5.93;;;2.40;;
33010;SDS011;19370;48.562;9.196;2023-12-20T00:23:45;5.32;;;1.60;;
33010;SDS011;19370;48.562;9.196;2023-12-20T00:26:12;5.37;;;1.80;;
33010;SDS011;19370;48.562;9.196;2023-12-20T00:28:38;5.97;;;2.22;;
33010;SDS011;19370;48.562;9.196;2023-12-20T00:31:04;5.55;;;1.60;;
33010;SDS011;19370;48.562;9.196;2023-12-20T00:50:35;5.28;;;1.52;;
33010;SDS011;19370;48.562;9.196;2023-12-20T00:56:19;6.30;;;1.60;;
33010;SDS011;19370;48.562;9.196;2023-12-20T01:02:19;4.90;;;1.20;;
33010;SDS011;19370;48.562;9.196;2023-12-20T01:09:08;4.95;;;1.45;;
33010;SDS011;19370;48.562;9.196;2023-12-20T01:11:36;4.90;;;1.40;;
33010;SDS011;19370;48.562;9.196;2023-12-20T01:14:59;5.13;;;1.40;;
33010;SDS011;19370;48.562;9.196;2023-12-20T01:17:25;5.03;;;1.40;;
33010;SDS011;19370;48.562;9.196;2023-12-20T01:19:50;5.23;;;1.50;;
33010;SDS011;19370;48.562;9.196;2023-12-20T01:22:16;4.83;;;1.40;;
33010;SDS011;19370;48.562;9.196;2023-12-20T01:24:41;4.90;;;1.52;;
33010;SDS011;19370;48.562;9.196;2023-12-20T01:27:07;5.07;;;1.60;;
33010;SDS011;19370;48.562;9.196;2023-12-20T01:29:34;4.63;;;1.30;;
33010;SDS011;19370;48.562;9.196;2023-12-20T01:31:59;5.07;;;1.60;;
33010;SDS011;19370;48.562;9.196;2023-12-20T01:34:25;4.90;;;1.63;;
33010;SDS011;19370;48.562;9.196;2023-12-20T01:36:52;5.10;;;1.60;;
33010;SDS011;19370;48.562;9.196;2023-12-20T01:39:18;5.00;;;1.50;;
33010;SDS011;19370;48.562;9.196;2023-12-20T01:41:44;5.73;;;1.50;;
33010;SDS011;19370;48.562;9.196;2023-12-20T01:44:10;5.35;;;1.60;;
33010;SDS011;19370;48.562;9.196;2023-12-20T01:46:36;4.70;;;1.40;;
33010;SDS011;19370;48.562;9.196;2023-12-20T01:49:01;5.22;;;1.40;;
33010;SDS011;19370;48.562;9.196;2023-12-20T01:51:27;6.38;;;1.55;;
33010;SDS011;19370;48.562;9.196;2023-12-20T01:53:54;4.97;;;1.40;;
33010;SDS011;19370;48.562;9.196;2023-12-20T01:56:22;5.47;;;1.90;;
33010;SDS011;19370;48.562;9.196;2023-12-20T01:58:49;5.68;;;1.55;;
33010;SDS011;19370;48.562;9.196;2023-12-20T02:01:14;5.53;;;1.70;;
33010;SDS011;19370;48.562;9.196;2023-12-20T02:03:42;5.93;;;1.95;;
33010;SDS011;19370;48.562;9.196;2023-12-20T02:06:08;5.53;;;1.95;;
33010;SDS011;19370;48.562;9.196;2023-12-20T02:08:35;5.57;;;2.00;;
33010;SDS011;19370;48.562;9.196;2023-12-20T02:11:01;6.53;;;2.00;;
33010;SDS011;19370;48.562;9.196;2023-12-20T02:13:26;5.60;;;2.10;;
33010;SDS011;19370;48.562;9.196;2023-12-20T02:15:52;6.13;;;2.10;;
33010;SDS011;19370;48.562;9.196;2023-12-20T02:18:19;8.55;;;2.20;;
33010;SDS011;19370;48.562;9.196;2023-12-20T02:20:45;5.90;;;1.88;;
33010;SDS011;19370;48.562;9.196;2023-12-20T02:23:11;6.30;;;2.10;;
33010;SDS011;19370;48.562;9.196;2023-12-20T02:25:37;6.00;;;1.92;;
33010;SDS011;19370;48.562;9.196;2023-12-20T02:28:02;5.83;;;1.73;;
33010;SDS011;19370;48.562;9.196;2023-12-20T02:30:29;5.93;;;1.92;;
33010;SDS011;19370;48.562;9.196;2023-12-20T02:32:55;6.83;;;1.80;;
33010;SDS011;19370;48.562;9.196;2023-12-20T02:35:21;6.18;;;2.00;;
33010;SDS011;19370;48.562;9.196;2023-12-20T02:37:46;6.83;;;2.00;;
33010;SDS011;19370;48.562;9.196;2023-12-20T05:46:56;3.78;;;0.82;;
33010;SDS011;19370;48.562;9.196;2023-12-20T05:49:31;4.15;;;1.00;;
33010;SDS011;19370;48.562;9.196;2023-12-20T05:52:15;4.50;;;1.30;;
33010;SDS011;19370;48.562;9.196;2023-12-20T05:55:20;3.73;;;1.10;;
33010;SDS011;19370;48.562;9.196;2023-12-20T05:57:45;5.13;;;1.00;;
33010;SDS011;19370;48.562;9.196;2023-12-20T06:00:12;3.90;;;0.93;;
33010;SDS011;19370;48.562;9.196;2023-12-20T06:02:39;5.80;;;1.07;;
33010;SDS011;19370;48.562;9.196;2023-12-20T06:05:05;4.05;;;1.08;;
33010;SDS011;19370;48.562;9.196;2023-12-20T06:07:30;3.90;;;1.13;;
33010;SDS011;19370;48.562;9.196;2023-12-20T06:09:56;5.33;;;1.10;;
33010;SDS011;19370;48.562;9.196;2023-12-20T06:12:21;5.03;;;1.20;;
33010;SDS011;19370;48.562;9.196;2023-12-20T06:14:50;3.58;;;0.80;;
33010;SDS011;19370;48.562;9.196;2023-12-20T06:17:16;4.97;;;1.00;;
33010;SDS011;19370;48.562;9.196;2023-12-20T06:19:41;3.80;;;0.83;;
33010;SDS011;19370;48.562;9.196;2023-12-20T06:22:09;3.63;;;1.00;;
33010;SDS011;19370;48.562;9.196;2023-12-20T06:24:35;4.80;;;1.00;;
33010;SDS011;19370;48.562;9.196;2023-12-20T06:27:01;3.80;;;1.00;;
33010;SDS011;19370;48.562;9.196;2023-12-20T06:29:27;4.67;;;1.13;;
33010;SDS011;19370;48.562;9.196;2023-12-20T06:31:53;3.92;;;1.10;;
33010;SDS011;19370;48.562;9.196;2023-12-20T06:34:18;5.70;;;1.40;;
33010;SDS011;19370;48.562;9.196;2023-12-20T06:36:44;3.88;;;1.20;;
33010;SDS011;19370;48.562;9.196;2023-12-20T06:39:10;3.50;;;1.00;;
33010;SDS011;19370;48.562;9.196;2023-12-20T06:41:37;4.45;;;1.23;;
33010;SDS011;19370;48.562;9.196;2023-12-20T06:44:03;5.10;;;1.47;;
33010;SDS011;19370;48.562;9.196;2023-12-20T06:46:29;4.75;;;1.10;;
33010;SDS011;19370;48.562;9.196;2023-12-20T06:48:54;3.73;;;0.90;;
33010;SDS011;19370;48.562;9.196;2023-12-20T06:51:20;4.70;;;1.08;;
33010;SDS011;19370;48.562;9.196;2023-12-20T06:53:45;7.20;;;1.40;;
33010;SDS011;19370;48.562;9.196;2023-12-20T06:59:13;5.20;;;1.30;;
33010;SDS011;19370;48.562;9.196;2023-12-20T07:01:39;4.17;;;1.10;;
33010;SDS011;19370;48.562;9.196;2023-12-20T07:04:04;4.05;;;1.08;;
33010;SDS011;19370;48.562;9.196;2023-12-20T07:06:30;4.60;;;1.30;;
33010;SDS011;19370;48.562;9.196;2023-12-20T07:08:55;4.43;;;1.10;;
33010;SDS011;19370;48.562;9.196;2023-12-20T07:11:21;4.47;;;1.38;;
33010;SDS011;19370;48.562;9.196;2023-12-20T07:13:46;3.47;;;0.90;;
33010;SDS011;19370;48.562;9.196;2023-12-20T07:16:12;4.30;;;1.00;;
33010;SDS011;19370;48.562;9.196;2023-12-20T07:18:38;4.70;;;1.08;;
33010;SDS011;19370;48.562;9.196;2023-12-20T07:21:03;4.53;;;1.20;;
33010;SDS011;19370;48.562;9.196;2023-12-20T07:23:29;5.85;;;1.50;;
33010;SDS011;19370;48.562;9.196;2023-12-20T07:25:55;6.40;;;1.50;;
33010;SDS011;19370;48.562;9.196;2023-12-20T07:28:20;4.32;;;1.00;;
33010;SDS011;19370;48.562;9.196;2023-12-20T07:30:46;4.20;;;1.20;;
33010;SDS011;19370;48.562;9.196;2023-12-20T07:33:12;3.88;;;1.17;;
33010;SDS011;19370;48.562;9.196;2023-12-20T07:35:37;4.37;;;1.20;;
33010;SDS011;19370;48.562;9.196;2023-12-20T07:38:03;4.40;;;1.10;;
33010;SDS011;19370;48.562;9.196;2023-12-20T07:40:29;5.15;;;1.45;;
33010;SDS011;19370;48.562;9.196;2023-12-20T07:42:54;3.90;;;1.00;;
33010;SDS011;19370;48.562;9.196;2023-12-20T07:45:20;5.13;;;1.50;;
33010;SDS011;19370;48.562;9.196;2023-12-20T07:47:45;4.67;;;1.10;;
33010;SDS011;19370;48.562;9.196;2023-12-20T07:50:11;4.33;;;1.10;;
33010;SDS011;19370;48.562;9.196;2023-12-20T07:52:36;6.07;;;1.38;;
33010;SDS011;19370;48.562;9.196;2023-12-20T07:55:02;4.97;;;1.37;;
33010;SDS011;19370;48.562;9.196;2023-12-20T07:57:29;5.20;;;1.50;;
33010;SDS011;19370;48.562;9.196;2023-12-20T07:59:55;5.53;;;1.40;;
33010;SDS011;19370;48.562;9.196;2023-12-20T08:02:21;5.73;;;1.50;;
33010;SDS011;19370;48.562;9.196;2023-12-20T08:04:46;5.30;;;1.53;;
33010;SDS011;19370;48.562;9.196;2023-12-20T08:07:12;4.80;;;1.38;;
33010;SDS011;19370;48.562;9.196;2023-12-20T08:09:37;4.93;;;1.43;;
33010;SDS011;19370;48.562;9.196;2023-12-20T08:12:06;5.13;;;1.20;;
33010;SDS011;19370;48.562;9.196;2023-12-20T08:14:32;5.07;;;1.27;;
33010;SDS011;19370;48.562;9.196;2023-12-20T08:16:58;4.80;;;1.30;;
33010;SDS011;19370;48.562;9.196;2023-12-20T08:19:23;4.75;;;1.45;;
33010;SDS011;19370;48.562;9.196;2023-12-20T08:21:49;5.07;;;1.20;;
33010;SDS011;19370;48.562;9.196;2023-12-20T08:24:14;6.17;;;1.50;;
33010;SDS011;19370;48.562;9.196;2023-12-20T08:26:40;4.10;;;1.10;;
33010;SDS011;19370;48.562;9.196;2023-12-20T08:29:05;4.57;;;1.20;;
33010;SDS011;19370;48.562;9.196;2023-12-20T08:31:31;4.53;;;1.17;;
33010;SDS011;19370;48.562;9.196;2023-12-20T08:33:57;4.93;;;1.40;;
33010;SDS011;19370;48.562;9.196;2023-12-20T08:36:22;4.80;;;1.10;;
33010;SDS011;19370;48.562;9.196;2023-12-20T08:38:48;4.97;;;1.40;;
33010;SDS011;19370;48.562;9.196;2023-12-20T08:41:14;4.20;;;1.30;;
33010;SDS011;19370;48.562;9.196;2023-12-20T08:43:40;5.38;;;1.30;;
33010;SDS011;19370;48.562;9.196;2023-12-20T08:46:06;5.00;;;1.30;;
33010;SDS011;19370;48.562;9.196;2023-12-20T08:48:34;5.32;;;1.00;;
33010;SDS011;19370;48.562;9.196;2023-12-20T08:51:00;4.25;;;1.27;;
33010;SDS011;19370;48.562;9.196;2023-12-20T08:53:26;4.83;;;1.20;;
33010;SDS011;19370;48.562;9.196;2023-12-20T08:55:51;5.32;;;1.55;;
33010;SDS011;19370;48.562;9.196;2023-12-20T08:58:17;5.93;;;1.60;;
33010;SDS011;19370;48.562;9.196;2023-12-20T09:00:43;6.27;;;2.10;;
33010;SDS011;19370;48.562;9.196;2023-12-20T09:03:08;5.82;;;1.80;;
33010;SDS011;19370;48.562;9.196;2023-12-20T09:05:34;5.10;;;1.50;;
33010;SDS011;19370;48.562;9.196;2023-12-20T09:08:00;5.13;;;1.77;;
33010;SDS011;19370;48.562;9.196;2023-12-20T09:10:25;5.20;;;1.90;;
33010;SDS011;19370;48.562;9.196;2023-12-20T09:12:51;4.72;;;1.40;;
33010;SDS011;19370;48.562;9.196;2023-12-20T09:15:21;6.10;;;1.92;;
33010;SDS011;19370;48.562;9.196;2023-12-20T09:17:48;7.05;;;2.47;;
33010;SDS011;19370;48.562;9.196;2023-12-20T09:20:13;7.33;;;2.90;;
33010;SDS011;19370;48.562;9.196;2023-12-20T09:22:39;6.30;;;2.10;;
33010;SDS011;19370;48.562;9.196;2023-12-20T09:25:06;6.70;;;2.40;;
33010;SDS011;19370;48.562;9.196;2023-12-20T09:27:32;7.30;;;2.33;;
33010;SDS011;19370;48.562;9.196;2023-12-20T09:29:58;6.37;;;2.20;;
33010;SDS011;19370;48.562;9.196;2023-12-20T09:32:24;8.07;;;2.60;;
33010;SDS011;19370;48.562;9.196;2023-12-20T09:34:49;7.63;;;2.63;;
33010;SDS011;19370;48.562;9.196;2023-12-20T09:37:15;6.77;;;2.40;;
33010;SDS011;19370;48.562;9.196;2023-12-20T09:39:40;7.53;;;2.20;;
33010;SDS011;19370;48.562;9.196;2023-12-20T09:42:06;6.72;;;2.03;;
33010;SDS011;19370;48.562;9.196;2023-12-20T09:44:32;7.20;;;2.07;;
33010;SDS011;19370;48.562;9.196;2023-12-20T09:47:04;6.55;;;2.33;;
33010;SDS011;19370;48.562;9.196;2023-12-20T09:49:31;9.07;;;2.47;;
33010;SDS011;19370;48.562;9.196;2023-12-20T09:51:57;8.18;;;2.08;;
33010;SDS011;19370;48.562;9.196;2023-12-20T09:54:25;6.13;;;2.10;;
33010;SDS011;19370;48.562;9.196;2023-12-20T09:56:53;5.93;;;2.00;;
33010;SDS011;19370;48.562;9.196;2023-12-20T09:59:19;7.85;;;2.05;;
33010;SDS011;19370;48.562;9.196;2023-12-20T10:01:44;6.93;;;2.13;;
33010;SDS011;19370;48.562;9.196;2023-12-20T10:04:10;7.57;;;2.20;;
33010;SDS011;19370;48.562;9.196;2023-12-20T10:06:46;6.53;;;1.90;;
33010;SDS011;19370;48.562;9.196;2023-12-20T10:09:12;5.90;;;1.85;;
33010;SDS011;19370;48.562;9.196;2023-12-20T10:11:38;7.32;;;2.20;;
33010;SDS011;19370;48.562;9.196;2023-12-20T10:14:05;6.60;;;1.70;;
33010;SDS011;19370;48.562;9.196;2023-12-20T10:16:31;6.55;;;1.98;;
33010;SDS011;19370;48.562;9.196;2023-12-20T10:18:57;6.25;;;1.90;;
33010;SDS011;19370;48.562;9.196;2023-12-20T10:21:24;6.93;;;1.75;;
33010;SDS011;19370;48.562;9.196;2023-12-20T10:23:51;8.45;;;1.80;;
33010;SDS011;19370;48.562;9.196;2023-12-20T10:26:21;7.80;;;1.80;;
33010;SDS011;19370;48.562;9.196;2023-12-20T10:28:55;5.57;;;1.70;;
33010;SDS011;19370;48.562;9.196;2023-12-20T10:31:31;6.72;;;1.65;;
33010;SDS011;19370;48.562;9.196;2023-12-20T10:33:58;8.52;;;1.67;;
33010;SDS011;19370;48.562;9.196;2023-12-20T10:36:29;6.97;;;1.50;;
33010;SDS011;19370;48.562;9.196;2023-12-20T10:38:56;7.00;;;1.50;;
33010;SDS011;19370;48.562;9.196;2023-12-20T10:41:26;5.63;;;1.63;;
33010;SDS011;19370;48.562;9.196;2023-12-20T10:44:00;5.72;;;1.60;;
33010;SDS011;19370;48.562;9.196;2023-12-20T10:46:29;5.68;;;1.67;;
33010;SDS011;19370;48.562;9.196;2023-12-20T10:48:57;5.45;;;1.42;;
33010;SDS011;19370;48.562;9.196;2023-12-20T10:51:32;7.47;;;1.50;;
33010;SDS011;19370;48.562;9.196;2023-12-20T10:54:00;7.80;;;1.48;;
33010;SDS011;19370;48.562;9.196;2023-12-20T10:59:12;5.82;;;1.52;;
33010;SDS011;19370;48.562;9.196;2023-12-20T11:01:40;6.43;;;1.40;;
33010;SDS011;19370;48.562;9.196;2023-12-20T11:04:08;6.43;;;1.40;;
33010;SDS011;19370;48.562;9.196;2023-12-20T11:06:51;5.85;;;1.23;;
33010;SDS011;19370;48.562;9.196;2023-12-20T11:09:24;5.68;;;1.50;;
33010;SDS011;19370;48.562;9.196;2023-12-20T11:12:13;6.15;;;1.35;;
33010;SDS011;19370;48.562;9.196;2023-12-20T11:14:47;6.78;;;1.80;;
33010;SDS011;19370;48.562;9.196;2023-12-20T11:17:14;5.30;;;1.30;;
33010;SDS011;19370;48.562;9.196;2023-12-20T11:22:26;6.88;;;1.60;;
33010;SDS011;19370;48.562;9.196;2023-12-20T11:24:54;6.70;;;1.30;;
33010;SDS011;19370;48.562;9.196;2023-12-20T11:27:33;5.75;;;1.35;;
33010;SDS011;19370;48.562;9.196;2023-12-20T11:29:59;5.83;;;1.27;;
33010;SDS011;19370;48.562;9.196;2023-12-20T11:32:28;6.53;;;1.42;;
33010;SDS011;19370;48.562;9.196;2023-12-20T11:34:58;6.43;;;1.80;;
33010;SDS011;19370;48.562;9.196;2023-12-20T11:37:37;5.18;;;1.58;;
33010;SDS011;19370;48.562;9.196;2023-12-20T11:46:56;6.28;;;1.40;;
33010;SDS011;19370;48.562;9.196;2023-12-20T11:55:25;6.45;;;1.60;;
33010;SDS011;19370;48.562;9.196;2023-12-20T11:57:51;5.87;;;1.43;;
33010;SDS011;19370;48.562;9.196;2023-12-20T12:00:17;6.68;;;1.80;;
33010;SDS011;19370;48.562;9.196;2023-12-20T12:02:43;5.65;;;1.70;;
33010;SDS011;19370;48.562;9.196;2023-12-20T12:05:19;5.43;;;1.43;;
33010;SDS011;19370;48.562;9.196;2023-12-20T12:07:45;6.65;;;1.58;;
33010;SDS011;19370;48.562;9.196;2023-12-20T12:10:11;7.10;;;1.87;;
33010;SDS011;19370;48.562;9.196;2023-12-20T12:12:36;5.80;;;1.75;;
33010;SDS011;19370;48.562;9.196;2023-12-20T12:15:02;6.37;;;1.70;;
33010;SDS011;19370;48.562;9.196;2023-12-20T12:17:28;5.00;;;1.20;;
33010;SDS011;19370;48.562;9.196;2023-12-20T12:20:01;5.37;;;1.60;;
33010;SDS011;19370;48.562;9.196;2023-12-20T12:22:28;8.85;;;1.70;;
33010;SDS011;19370;48.562;9.196;2023-12-20T12:24:54;6.07;;;1.55;;
33010;SDS011;19370;48.562;9.196;2023-12-20T12:27:19;7.30;;;1.70;;
33010;SDS011;19370;48.562;9.196;2023-12-20T12:30:04;6.60;;;1.43;;
33010;SDS011;19370;48.562;9.196;2023-12-20T12:32:32;8.05;;;1.58;;
33010;SDS011;19370;48.562;9.196;2023-12-20T12:34:58;8.00;;;2.10;;
33010;SDS011;19370;48.562;9.196;2023-12-20T12:37:23;7.07;;;1.70;;
33010;SDS011;19370;48.562;9.196;2023-12-20T12:39:49;6.13;;;1.50;;
33010;SDS011;19370;48.562;9.196;2023-12-20T12:42:15;6.67;;;1.50;;
33010;SDS011;19370;48.562;9.196;2023-12-20T12:44:40;6.83;;;2.03;;
33010;SDS011;19370;48.562;9.196;2023-12-20T12:47:06;6.13;;;1.83;;
33010;SDS011;19370;48.562;9.196;2023-12-20T12:49:32;8.03;;;1.60;;
33010;SDS011;19370;48.562;9.196;2023-12-20T12:51:58;8.40;;;1.90;;
33010;SDS011;19370;48.562;9.196;2023-12-20T12:54:24;6.97;;;2.30;;
33010;SDS011;19370;48.562;9.196;2023-12-20T12:56:49;5.70;;;1.20;;
33010;SDS011;19370;48.562;9.196;2023-12-20T12:59:15;5.38;;;1.35;;
33010;SDS011;19370;48.562;9.196;2023-12-20T13:01:41;5.97;;;1.48;;
33010;SDS011;19370;48.562;9.196;2023-12-20T13:04:07;7.63;;;1.80;;
33010;SDS011;19370;48.562;9.196;2023-12-20T13:06:36;8.52;;;1.98;;
33010;SDS011;19370;48.562;9.196;2023-12-20T13:09:02;8.50;;;2.40;;
33010;SDS011;19370;48.562;9.196;2023-12-20T13:11:29;7.43;;;2.15;;
33010;SDS011;19370;48.562;9.196;2023-12-20T13:13:56;8.47;;;1.87;;
33010;SDS011;19370;48.562;9.196;2023-12-20T13:16:22;9.15;;;1.77;;
33010;SDS011;19370;48.562;9.196;2023-12-20T13:18:49;8.85;;;1.88;;
33010;SDS011;19370;48.562;9.196;2023-12-20T13:21:15;6.47;;;1.63;;
33010;SDS011;19370;48.562;9.196;2023-12-20T13:23:41;7.03;;;1.50;;
33010;SDS011;19370;48.562;9.196;2023-12-20T13:26:06;5.40;;;1.58;;
33010;SDS011;19370;48.562;9.196;2023-12-20T13:28:32;5.90;;;1.40;;
33010;SDS011;19370;48.562;9.196;2023-12-20T13:30:58;6.95;;;1.80;;
33010;SDS011;19370;48.562;9.196;2023-12-20T13:33:23;7.10;;;1.60;;
33010;SDS011;19370;48.562;9.196;2023-12-20T13:35:49;8.90;;;1.67;;
33010;SDS011;19370;48.562;9.196;2023-12-20T13:38:15;7.53;;;1.50;;
33010;SDS011;19370;48.562;9.196;2023-12-20T13:40:40;5.93;;;1.47;;
33010;SDS011;19370;48.562;9.196;2023-12-20T13:43:06;7.60;;;1.50;;
33010;SDS011;19370;48.562;9.196;2023-12-20T13:45:32;5.03;;;1.30;;
33010;SDS011;19370;48.562;9.196;2023-12-20T13:47:58;7.28;;;1.48;;
33010;SDS011;19370;48.562;9.196;2023-12-20T13:50:24;6.60;;;1.70;;
33010;SDS011;19370;48.562;9.196;2023-12-20T13:52:51;7.93;;;1.85;;
33010;SDS011;19370;48.562;9.196;2023-12-20T13:55:17;7.78;;;1.73;;
33010;SDS011;19370;48.562;9.196;2023-12-20T13:57:48;5.93;;;1.30;;
33010;SDS011;19370;48.562;9.196;2023-12-20T14:00:13;6.47;;;1.40;;
33010;SDS011;19370;48.562;9.196;2023-12-20T14:02:40;8.27;;;1.70;;
33010;SDS011;19370;48.562;9.196;2023-12-20T14:05:07;6.33;;;1.43;;
33010;SDS011;19370;48.562;9.196;2023-12-20T14:07:34;7.88;;;1.70;;
33010;SDS011;19370;48.562;9.196;2023-12-20T14:10:02;7.43;;;1.80;;
33010;SDS011;19370;48.562;9.196;2023-12-20T14:12:28;6.95;;;1.58;;
33010;SDS011;19370;48.562;9.196;2023-12-20T14:14:54;7.90;;;1.40;;
33010;SDS011;19370;48.562;9.196;2023-12-20T14:17:22;7.88;;;1.60;;
33010;SDS011;19370;48.562;9.196;2023-12-20T14:19:47;6.07;;;1.60;;
33010;SDS011;19370;48.562;9.196;2023-12-20T14:22:13;7.20;;;1.63;;
33010;SDS011;19370;48.562;9.196;2023-12-20T14:24:41;7.90;;;1.58;;
33010;SDS011;19370;48.562;9.196;2023-12-20T14:27:07;6.50;;;1.67;;
33010;SDS011;19370;48.562;9.196;2023-12-20T14:29:34;7.97;;;1.83;;
33010;SDS011;19370;48.562;9.196;2023-12-20T14:32:00;8.27;;;1.67;;
33010;SDS011;19370;48.562;9.196;2023-12-20T14:34:27;9.67;;;1.63;;
33010;SDS011;19370;48.562;9.196;2023-12-20T14:36:53;6.50;;;1.58;;
33010;SDS011;19370;48.562;9.196;2023-12-20T14:39:19;6.17;;;1.20;;
33010;SDS011;19370;48.562;9.196;2023-12-20T14:41:45;6.22;;;1.50;;
33010;SDS011;19370;48.562;9.196;2023-12-20T14:44:12;7.30;;;1.40;;
33010;SDS011;19370;48.562;9.196;2023-12-20T14:46:37;5.68;;;1.55;;
33010;SDS011;19370;48.562;9.196;2023-12-20T14:49:04;6.10;;;1.63;;
33010;SDS011;19370;48.562;9.196;2023-12-20T14:51:31;13.02;;;1.70;;
33010;SDS011;19370;48.562;9.196;2023-12-20T14:53:57;15.40;;;1.70;;
33010;SDS011;19370;48.562;9.196;2023-12-20T14:56:23;8.57;;;1.50;;
33010;SDS011;19370;48.562;9.196;2023-12-20T14:58:50;8.68;;;1.95;;
33010;SDS011;19370;48.562;9.196;2023-12-20T15:01:16;7.17;;;1.50;;
33010;SDS011;19370;48.562;9.196;2023-12-20T15:03:46;6.57;;;1.67;;
33010;SDS011;19370;48.562;9.196;2023-12-20T15:06:12;6.00;;;1.50;;
33010;SDS011;19370;48.562;9.196;2023-12-20T15:08:44;7.13;;;1.50;;
33010;SDS011;19370;48.562;9.196;2023-12-20T15:11:10;7.63;;;1.48;;
33010;SDS011;19370;48.562;9.196;2023-12-20T15:13:36;10.48;;;1.80;;
33010;SDS011;19370;48.562;9.196;2023-12-20T15:16:02;8.33;;;1.40;;
33010;SDS011;19370;48.562;9.196;2023-12-20T15:18:30;6.38;;;1.40;;
33010;SDS011;19370;48.562;9.196;2023-12-20T15:20:56;7.15;;;2.00;;
33010;SDS011;19370;48.562;9.196;2023-12-20T15:23:22;7.53;;;1.75;;
33010;SDS011;19370;48.562;9.196;2023-12-20T15:25:51;7.95;;;1.63;;
33010;SDS011;19370;48.562;9.196;2023-12-20T15:28:16;7.43;;;1.90;;
33010;SDS011;19370;48.562;9.196;2023-12-20T15:30:42;6.37;;;1.50;;
33010;SDS011;19370;48.562;9.196;2023-12-20T15:33:08;7.40;;;2.00;;
33010;SDS011;19370;48.562;9.196;2023-12-20T15:35:33;7.72;;;1.80;;
33010;SDS011;19370;48.562;9.196;2023-12-20T15:37:59;8.30;;;1.80;;
33010;SDS011;19370;48.562;9.196;2023-12-20T15:40:27;8.13;;;1.80;;
33010;SDS011;19370;48.562;9.196;2023-12-20T15:42:53;6.33;;;1.90;;
33010;SDS011;19370;48.562;9.196;2023-12-20T15:45:21;5.63;;;1.73;;
33010;SDS011;19370;48.562;9.196;2023-12-20T15:47:47;6.93;;;1.80;;
33010;SDS011;19370;48.562;9.196;2023-12-20T15:50:12;6.57;;;1.65;;
33010;SDS011;19370;48.562;9.196;2023-12-20T15:52:38;7.97;;;1.85;;
33010;SDS011;19370;48.562;9.196;2023-12-20T15:55:04;7.03;;;1.80;;
33010;SDS011;19370;48.562;9.196;2023-12-20T15:57:29;6.95;;;1.55;;
33010;SDS011;19370;48.562;9.196;2023-12-20T15:59:55;7.00;;;1.70;;
33010;SDS011;19370;48.562;9.196;2023-12-20T16:02:20;6.35;;;1.70;;
33010;SDS011;19370;48.562;9.196;2023-12-20T16:04:48;6.20;;;1.80;;
33010;SDS011;19370;48.562;9.196;2023-12-20T16:07:17;6.57;;;1.50;;
33010;SDS011;19370;48.562;9.196;2023-12-20T16:09:43;5.55;;;1.73;;
33010;SDS011;19370;48.562;9.196;2023-12-20T16:12:09;8.83;;;1.97;;
33010;SDS011;19370;48.562;9.196;2023-12-20T16:14:35;6.60;;;1.70;;
33010;SDS011;19370;48.562;9.196;2023-12-20T16:17:02;7.40;;;1.77;;
33010;SDS011;19370;48.562;9.196;2023-12-20T16:19:27;7.03;;;1.83;;
33010;SDS011;19370;48.562;9.196;2023-12-20T16:21:53;6.65;;;1.50;;
33010;SDS011;19370;48.562;9.196;2023-12-20T16:24:29;7.00;;;1.67;;
33010;SDS011;19370;48.562;9.196;2023-12-20T16:27:06;6.25;;;2.15;;
33010;SDS011;19370;48.562;9.196;2023-12-20T16:29:32;6.68;;;1.60;;
33010;SDS011;19370;48.562;9.196;2023-12-20T16:31:57;5.37;;;1.40;;
33010;SDS011;19370;48.562;9.196;2023-12-20T16:34:23;6.80;;;1.80;;
33010;SDS011;19370;48.562;9.196;2023-12-20T16:36:50;6.55;;;1.77;;
33010;SDS011;19370;48.562;9.196;2023-12-20T16:39:31;7.60;;;1.90;;
33010;SDS011;19370;48.562;9.196;2023-12-20T16:42:05;4.77;;;1.20;;
33010;SDS011;19370;48.562;9.196;2023-12-20T16:44:33;5.63;;;1.30;;
33010;SDS011;19370;48.562;9.196;2023-12-20T16:47:03;8.52;;;1.63;;
33010;SDS011;19370;48.562;9.196;2023-12-20T17:02:11;5.95;;;1.90;;
33010;SDS011;19370;48.562;9.196;2023-12-20T17:25:55;7.05;;;2.17;;
33010;SDS011;19370;48.562;9.196;2023-12-20T17:48:06;8.03;;;3.40;;
33010;SDS011;19370;48.562;9.196;2023-12-20T18:01:22;6.63;;;1.95;;
33010;SDS011;19370;48.562;9.196;2023-12-20T18:03:49;7.10;;;2.20;;
33010;SDS011;19370;48.562;9.196;2023-12-20T18:06:17;8.15;;;2.33;;
33010;SDS011;19370;48.562;9.196;2023-12-20T18:08:43;9.13;;;2.30;;
33010;SDS011;19370;48.562;9.196;2023-12-20T18:11:09;8.90;;;2.70;;
33010;SDS011;19370;48.562;9.196;2023-12-20T18:13:35;8.77;;;2.00;;
33010;SDS011;19370;48.562;9.196;2023-12-20T18:16:01;8.47;;;2.40;;
33010;SDS011;19370;48.562;9.196;2023-12-20T18:18:34;7.68;;;2.50;;
33010;SDS011;19370;48.562;9.196;2023-12-20T18:21:00;8.02;;;2.42;;
33010;SDS011;19370;48.562;9.196;2023-12-20T18:23:28;6.65;;;2.03;;
33010;SDS011;19370;48.562;9.196;2023-12-20T18:25:54;8.50;;;2.50;;
33010;SDS011;19370;48.562;9.196;2023-12-20T18:28:23;9.70;;;2.50;;
33010;SDS011;19370;48.562;9.196;2023-12-20T18:30:51;6.97;;;2.20;;
33010;SDS011;19370;48.562;9.196;2023-12-20T18:33:42;8.60;;;2.20;;
33010;SDS011;19370;48.562;9.196;2023-12-20T18:36:17;9.60;;;2.50;;
33010;SDS011;19370;48.562;9.196;2023-12-20T18:39:02;7.22;;;2.25;;
33010;SDS011;19370;48.562;9.196;2023-12-20T18:45:10;8.25;;;2.40;;
33010;SDS011;19370;48.562;9.196;2023-12-20T18:48:08;5.78;;;2.28;;
33010;SDS011;19370;48.562;9.196;2023-12-20T18:50:35;8.80;;;2.38;;
33010;SDS011;19370;48.562;9.196;2023-12-20T18:53:25;8.63;;;2.30;;
33010;SDS011;19370;48.562;9.196;2023-12-20T18:55:52;8.17;;;2.20;;
33010;SDS011;19370;48.562;9.196;2023-12-20T18:59:15;8.43;;;2.13;;
33010;SDS011;19370;48.562;9.196;2023-12-20T19:01:45;7.63;;;2.03;;
33010;SDS011;19370;48.562;9.196;2023-12-20T19:04:11;7.60;;;2.00;;
33010;SDS011;19370;48.562;9.196;2023-12-20T19:06:37;8.97;;;2.10;;
33010;SDS011;19370;48.562;9.196;2023-12-20T19:09:04;7.72;;;1.95;;
33010;SDS011;19370;48.562;9.196;2023-12-20T19:11:32;6.43;;;2.10;;
33010;SDS011;19370;48.562;9.196;2023-12-20T19:13:58;6.90;;;2.30;;
33010;SDS011;19370;48.562;9.196;2023-12-20T19:16:27;6.90;;;2.30;;
33010;SDS011;19370;48.562;9.196;2023-12-20T19:18:53;6.10;;;1.60;;
33010;SDS011;19370;48.562;9.196;2023-12-20T19:21:19;7.35;;;2.00;;
33010;SDS011;19370;48.562;9.196;2023-12-20T19:23:46;8.68;;;2.15;;
33010;SDS011;19370;48.562;9.196;2023-12-20T19:26:13;8.73;;;2.50;;
33010;SDS011;19370;48.562;9.196;2023-12-20T19:28:39;7.13;;;2.15;;
33010;SDS011;19370;48.562;9.196;2023-12-20T19:31:05;7.88;;;2.15;;
33010;SDS011;19370;48.562;9.196;2023-12-20T19:33:38;7.65;;;2.17;;
33010;SDS011;19370;48.562;9.196;2023-12-20T19:36:09;6.03;;;1.73;;
33010;SDS011;19370;48.562;9.196;2023-12-20T19:38:35;6.35;;;2.10;;
33010;SDS011;19370;48.562;9.196;2023-12-20T19:41:02;7.05;;;1.88;;
33010;SDS011;19370;48.562;9.196;2023-12-20T19:43:29;5.82;;;1.73;;
33010;SDS011;19370;48.562;9.196;2023-12-20T19:45:54;6.85;;;1.85;;
33010;SDS011;19370;48.562;9.196;2023-12-20T19:48:24;7.40;;;1.70;;
33010;SDS011;19370;48.562;9.196;2023-12-20T19:50:51;6.70;;;1.90;;
33010;SDS011;19370;48.562;9.196;2023-12-20T19:53:22;7.40;;;2.00;;
33010;SDS011;19370;48.562;9.196;2023-12-20T19:55:56;8.00;;;2.35;;
33010;SDS011;19370;48.562;9.196;2023-12-20T19:58:23;7.43;;;2.30;;
33010;SDS011;19370;48.562;9.196;2023-12-20T20:00:49;7.82;;;2.00;;
33010;SDS011;19370;48.562;9.196;2023-12-20T20:03:14;5.67;;;2.13;;
33010;SDS011;19370;48.562;9.196;2023-12-20T20:05:40;7.18;;;1.80;;
33010;SDS011;19370;48.562;9.196;2023-12-20T20:08:06;7.77;;;1.90;;
33010;SDS011;19370;48.562;9.196;2023-12-20T20:10:31;7.22;;;2.33;;